createdAt,value
2018-09-14T00:00:58.259Z,95885.13
2018-09-14T00:03:27.380Z,95886.35
2018-09-14T00:05:56.501Z,95884.06
2018-09-14T00:08:25.723Z,95889.59
2018-09-14T00:10:54.961Z,95884.21
2018-09-14T00:13:24.089Z,95885.03
2018-09-14T00:15:53.517Z,95889.41
2018-09-14T00:18:22.682Z,95892.03
2018-09-14T00:20:51.943Z,95892.03
2018-09-14T00:23:21.064Z,95893.03
2018-09-14T00:25:50.213Z,95895.92
2018-09-14T00:28:19.649Z,95893.63
2018-09-14T00:30:48.753Z,95896.09
2018-09-14T00:33:18.083Z,95894.05
2018-09-14T00:35:47.241Z,95901.81
2018-09-14T00:38:16.640Z,95901.22
2018-09-14T00:40:46.065Z,95896.65
2018-09-14T00:43:15.459Z,95894.30
2018-09-14T00:45:44.880Z,95894.67
2018-09-14T00:48:14.088Z,95890.32
2018-09-14T00:50:43.257Z,95893.58
2018-09-14T00:53:12.476Z,95893.63
2018-09-14T00:55:41.708Z,95893.91
2018-09-14T00:58:10.881Z,95890.52
2018-09-14T01:00:40.080Z,95892.30
2018-09-14T01:03:09.273Z,95893.84
2018-09-14T01:05:38.459Z,95893.06
2018-09-14T01:08:07.681Z,95890.63
2018-09-14T01:10:37.048Z,95897.45
2018-09-14T01:13:06.280Z,95897.80
2018-09-14T01:15:35.436Z,95896.78
2018-09-14T01:18:04.729Z,95898.45
2018-09-14T01:20:33.970Z,95898.11
2018-09-14T01:23:03.084Z,95900.55
2018-09-14T01:25:32.231Z,95901.61
2018-09-14T01:28:01.412Z,95901.25
2018-09-14T01:30:30.543Z,95899.55
2018-09-14T01:32:59.683Z,95899.80
2018-09-14T01:35:34.320Z,95904.66
2018-09-14T01:38:03.554Z,95903.97
2018-09-14T01:40:32.784Z,95904.45
2018-09-14T01:43:01.954Z,95898.88
2018-09-14T01:45:31.211Z,95903.91
2018-09-14T01:48:00.325Z,95899.10
2018-09-14T01:50:29.614Z,95907.73
2018-09-14T01:52:58.735Z,95904.11
2018-09-14T01:55:27.891Z,95904.39
2018-09-14T01:57:57.008Z,95902.00
2018-09-14T02:00:26.229Z,95902.45
2018-09-14T02:02:55.437Z,95910.19
2018-09-14T02:05:24.643Z,95908.25
2018-09-14T02:07:53.935Z,95908.55
2018-09-14T02:10:24.013Z,95907.17
2018-09-14T02:12:53.956Z,95907.73
2018-09-14T02:15:23.265Z,95905.16
2018-09-14T02:17:52.419Z,95901.12
2018-09-14T02:20:21.667Z,95902.83
2018-09-14T02:22:50.779Z,95903.52
2018-09-14T02:25:19.940Z,95901.63
2018-09-14T02:27:49.047Z,95906.02
2018-09-14T02:30:18.281Z,95913.08
2018-09-14T02:32:47.545Z,95905.23
2018-09-14T02:35:16.677Z,95898.99
2018-09-14T02:37:45.939Z,95908.95
2018-09-14T02:40:15.231Z,95907.31
2018-09-14T02:42:44.377Z,95906.02
2018-09-14T02:45:13.495Z,95910.78
2018-09-14T02:47:42.645Z,95908.23
2018-09-14T02:50:11.806Z,95910.00
2018-09-14T02:52:40.989Z,95918.61
2018-09-14T02:55:10.199Z,95921.34
2018-09-14T02:57:39.381Z,95923.69
2018-09-14T03:00:08.558Z,95928.81
2018-09-14T03:02:37.786Z,95924.58
2018-09-14T03:05:07.006Z,95931.63
2018-09-14T03:07:36.123Z,95937.05
2018-09-14T03:10:05.350Z,95938.26
2018-09-14T03:12:34.515Z,95941.13
2018-09-14T03:15:03.720Z,95945.88
2018-09-14T03:17:32.905Z,95949.53
2018-09-14T03:20:02.011Z,95939.30
2018-09-14T03:22:31.186Z,95945.52
2018-09-14T03:25:00.316Z,95935.44
2018-09-14T03:27:29.478Z,95938.64
2018-09-14T03:29:58.658Z,95930.76
2018-09-14T03:32:27.797Z,95930.27
2018-09-14T03:34:56.986Z,95933.02
2018-09-14T03:37:26.147Z,95926.96
2018-09-14T03:39:55.340Z,95930.31
2018-09-14T03:42:24.578Z,95925.77
2018-09-14T03:44:53.726Z,95934.44
2018-09-14T03:47:22.849Z,95929.75
2018-09-14T03:49:52.070Z,95939.64
2018-09-14T03:52:21.211Z,95942.51
2018-09-14T03:54:50.425Z,95948.50
2018-09-14T03:57:19.630Z,95944.89
2018-09-14T03:59:48.763Z,95948.26
2018-09-14T04:02:17.886Z,95948.52
2018-09-14T04:04:47.149Z,95950.08
2018-09-14T04:07:16.340Z,95943.95
2018-09-14T04:09:45.545Z,95944.89
2018-09-14T04:12:14.813Z,95941.38
2018-09-14T04:14:43.949Z,95943.47
2018-09-14T04:17:13.179Z,95944.14
2018-09-14T04:19:42.395Z,95941.02
2018-09-14T04:22:11.505Z,95944.70
2018-09-14T04:24:40.849Z,95946.16
2018-09-14T04:27:10.009Z,95947.53
2018-09-14T04:29:39.142Z,95949.02
2018-09-14T04:32:08.621Z,95947.16
2018-09-14T04:34:37.733Z,95949.46
2018-09-14T04:37:06.917Z,95952.77
2018-09-14T04:39:36.017Z,95952.54
2018-09-14T04:42:05.227Z,95958.23
2018-09-14T04:44:34.320Z,95952.77
2018-09-14T04:47:03.481Z,95955.27
2018-09-14T04:49:32.615Z,95953.02
2018-09-14T04:52:01.785Z,95953.19
2018-09-14T04:54:30.873Z,95958.66
2018-09-14T04:56:59.998Z,95962.90
2018-09-14T04:59:29.108Z,95958.39
2018-09-14T05:01:58.318Z,95962.64
2018-09-14T05:04:27.661Z,95960.64
2018-09-14T05:06:56.813Z,95969.26
2018-09-14T05:09:26.014Z,95975.71
2018-09-14T05:11:55.286Z,95968.89
2018-09-14T05:14:24.453Z,95970.65
2018-09-14T05:16:53.556Z,95970.78
2018-09-14T05:19:22.794Z,95968.41
2018-09-14T05:21:52.274Z,95975.33
2018-09-14T05:24:21.451Z,95968.41
2018-09-14T05:26:50.618Z,95970.53
2018-09-14T05:29:19.996Z,95974.66
2018-09-14T05:31:49.115Z,95983.01
2018-09-14T05:34:18.353Z,95984.88
2018-09-14T05:36:47.468Z,95978.03
2018-09-14T05:39:16.648Z,95987.95
2018-09-14T05:41:45.918Z,95987.09
2018-09-14T05:44:15.042Z,95991.78
2018-09-14T05:46:44.241Z,95996.53
2018-09-14T05:49:13.526Z,95998.83
2018-09-14T05:51:42.733Z,96003.51
2018-09-14T05:54:11.870Z,96010.84
2018-09-14T05:56:41.189Z,96013.76
2018-09-14T05:59:10.402Z,96007.20
2018-09-14T06:01:39.761Z,96008.32
2018-09-14T06:04:08.946Z,96013.93
2018-09-14T06:06:38.110Z,96013.66
2018-09-14T06:09:09.844Z,96012.34
2018-09-14T06:11:39.072Z,96018.08
2018-09-14T06:14:08.208Z,96017.78
2018-09-14T06:16:37.998Z,96016.02
2018-09-14T06:19:07.236Z,96018.02
2018-09-14T06:21:36.456Z,96022.41
2018-09-14T06:24:05.613Z,96020.53
2018-09-14T06:26:34.722Z,96021.22
2018-09-14T06:29:03.948Z,96022.16
2018-09-14T06:31:33.043Z,96022.37
2018-09-14T06:34:02.149Z,96022.79
2018-09-14T06:36:31.364Z,96030.22
2018-09-14T06:39:01.523Z,96035.13
2018-09-14T06:41:30.719Z,96031.79
2018-09-14T06:43:59.841Z,96026.42
2018-09-14T06:46:28.950Z,96023.07
2018-09-14T06:48:58.113Z,96026.74
2018-09-14T06:51:27.302Z,96032.61
2018-09-14T06:53:56.423Z,96039.05
2018-09-14T06:56:25.682Z,96032.41
2018-09-14T06:58:55.065Z,96038.39
2018-09-14T07:01:24.226Z,96040.33
2018-09-14T07:03:53.335Z,96044.91
2018-09-14T07:06:22.655Z,96037.96
2018-09-14T07:08:51.748Z,96044.30
2018-09-14T07:11:21.036Z,96041.55
2018-09-14T07:13:50.141Z,96042.53
2018-09-14T07:16:19.394Z,96043.52
2018-09-14T07:18:48.721Z,96046.66
2018-09-14T07:21:18.010Z,96047.77
2018-09-14T07:23:47.110Z,96048.47
2018-09-14T07:26:16.472Z,96052.75
2018-09-14T07:28:45.682Z,96056.09
2018-09-14T07:31:14.841Z,96058.49
2018-09-14T07:33:44.302Z,96061.77
2018-09-14T07:36:13.930Z,96065.25
2018-09-14T07:38:43.678Z,96063.33
2018-09-14T07:41:12.813Z,96069.14
2018-09-14T07:43:42.061Z,96068.51
2018-09-14T07:46:12.238Z,96076.92
2018-09-14T07:48:41.392Z,96083.27
2018-09-14T07:51:10.483Z,96082.23
2018-09-14T07:53:39.668Z,96085.30
2018-09-14T07:56:08.775Z,96087.36
2018-09-14T07:58:37.912Z,96087.67
2018-09-14T08:01:07.189Z,96087.79
2018-09-14T08:03:36.347Z,96095.81
2018-09-14T08:06:05.584Z,96100.30
2018-09-14T08:08:34.687Z,96098.70
2018-09-14T08:11:03.940Z,96099.56
2018-09-14T08:13:33.168Z,96104.66
2018-09-14T08:16:02.243Z,96105.25
2018-09-14T08:18:31.665Z,96109.38
2018-09-14T08:21:00.885Z,96108.48
2018-09-14T08:23:31.134Z,96108.59
2018-09-14T08:26:00.276Z,96104.98
2018-09-14T08:28:29.403Z,96104.84
2018-09-14T08:30:58.561Z,96106.59
2018-09-14T08:33:27.662Z,96112.62
2018-09-14T08:35:56.775Z,96112.80
2018-09-14T08:38:25.954Z,96104.70
2018-09-14T08:40:55.113Z,96109.91
2018-09-14T08:43:24.233Z,96110.23
2018-09-14T08:45:53.370Z,96114.33
2018-09-14T08:48:22.541Z,96109.67
2018-09-14T08:50:51.805Z,96117.60
2018-09-14T08:53:21.157Z,96106.00
2018-09-14T08:55:50.273Z,96117.72
2018-09-14T08:58:19.427Z,96118.88
2018-09-14T09:00:48.637Z,96124.38
2018-09-14T09:03:17.768Z,96118.88
2018-09-14T09:05:46.876Z,96129.50
2018-09-14T09:08:15.977Z,96121.50
2018-09-14T09:10:45.241Z,96119.15
2018-09-14T09:13:14.390Z,96118.65
2018-09-14T09:15:43.604Z,96129.07
2018-09-14T09:18:12.682Z,96124.03
2018-09-14T09:20:41.910Z,96121.02
2018-09-14T09:23:11.076Z,96120.12
2018-09-14T09:25:40.289Z,96122.23
2018-09-14T09:28:09.395Z,96124.98
2018-09-14T09:30:38.647Z,96124.75
2018-09-14T09:33:07.745Z,96118.98
2018-09-14T09:35:36.861Z,96119.41
2018-09-14T09:38:06.155Z,96120.86
2018-09-14T09:40:35.353Z,96121.55
2018-09-14T09:43:04.530Z,96123.73
2018-09-14T09:45:33.665Z,96127.78
2018-09-14T09:48:02.813Z,96125.59
2018-09-14T09:50:31.948Z,96127.63
2018-09-14T09:53:01.201Z,96119.63
2018-09-14T09:55:31.325Z,96119.41
2018-09-14T09:58:00.529Z,96117.62
2018-09-14T10:00:34.868Z,96122.26
2018-09-14T10:03:09.265Z,96120.70
2018-09-14T10:05:43.731Z,96120.80
2018-09-14T10:08:12.845Z,96123.71
2018-09-14T10:10:42.023Z,96118.80
2018-09-14T10:13:11.225Z,96119.31
2018-09-14T10:15:40.405Z,96116.70
2018-09-14T10:18:09.689Z,96117.72
2018-09-14T10:20:38.834Z,96114.37
2018-09-14T10:23:07.941Z,96111.58
2018-09-14T10:25:37.064Z,96118.54
2018-09-14T10:28:06.372Z,96116.97
2018-09-14T10:30:35.498Z,96112.65
2018-09-14T10:33:04.598Z,96115.98
2018-09-14T10:35:33.743Z,96115.70
2018-09-14T10:38:02.832Z,96115.45
2018-09-14T10:40:32.039Z,96115.78
2018-09-14T10:43:01.206Z,96123.94
2018-09-14T10:45:30.418Z,96112.77
2018-09-14T10:47:59.643Z,96118.65
2018-09-14T10:50:28.792Z,96114.42
2018-09-14T10:52:57.990Z,96114.59
2018-09-14T10:55:27.257Z,96112.33
2018-09-14T10:57:56.441Z,96112.81
2018-09-14T11:00:25.598Z,96111.31
2018-09-14T11:02:54.746Z,96111.65
2018-09-14T11:05:23.927Z,96120.87
2018-09-14T11:07:53.079Z,96113.83
2018-09-14T11:10:22.329Z,96113.11
2018-09-14T11:12:51.546Z,96109.56
2018-09-14T11:15:20.825Z,96110.88
2018-09-14T11:17:49.939Z,96111.23
2018-09-14T11:20:19.133Z,96108.44
2018-09-14T11:22:48.678Z,96107.28
2018-09-14T11:25:17.835Z,96110.19
2018-09-14T11:27:46.994Z,96102.70
2018-09-14T11:30:16.116Z,96104.52
2018-09-14T11:32:45.241Z,96098.52
2018-09-14T11:35:14.465Z,96097.98
2018-09-14T11:37:43.713Z,96105.37
2018-09-14T11:40:12.978Z,96099.37
2018-09-14T11:42:42.272Z,96096.06
2018-09-14T11:45:11.460Z,96100.07
2018-09-14T11:47:40.627Z,96094.44
2018-09-14T11:50:09.809Z,96092.23
2018-09-14T11:52:39.001Z,96092.91
2018-09-14T11:55:08.233Z,96091.64
2018-09-14T11:57:37.435Z,96090.59
2018-09-14T12:00:06.580Z,96088.16
2018-09-14T12:02:35.777Z,96086.16
2018-09-14T12:05:04.914Z,96086.16
2018-09-14T12:07:38.959Z,96084.20
2018-09-14T12:10:09.178Z,96079.37
2018-09-14T12:12:38.341Z,96071.95
2018-09-14T12:15:07.545Z,96068.61
2018-09-14T12:17:36.637Z,96067.34
2018-09-14T12:20:05.895Z,96061.42
2018-09-14T12:22:35.002Z,96054.13
2018-09-14T12:25:04.189Z,96054.48
2018-09-14T12:27:33.246Z,96057.02
2018-09-14T12:30:02.655Z,96056.84
2018-09-14T12:32:31.725Z,96056.84
2018-09-14T12:35:00.816Z,96037.86
2018-09-14T12:37:29.995Z,96051.78
2018-09-14T12:39:59.091Z,96047.58
2018-09-14T12:42:28.195Z,96052.55
2018-09-14T12:44:57.285Z,96054.59
2018-09-14T12:47:26.360Z,96058.45
2018-09-14T12:49:55.687Z,96051.14
2018-09-14T12:52:24.787Z,96048.27
2018-09-14T12:54:53.944Z,96050.98
2018-09-14T12:57:23.005Z,96047.31
2018-09-14T12:59:52.189Z,96051.39
2018-09-14T13:02:21.357Z,96051.34
2018-09-14T13:04:50.554Z,96055.97
2018-09-14T13:07:19.635Z,96052.20
2018-09-14T13:09:48.738Z,96038.28
2018-09-14T13:12:17.948Z,96038.28
2018-09-14T13:14:47.060Z,96047.16
2018-09-14T13:17:16.250Z,96038.36
2018-09-14T13:19:45.420Z,96030.75
2018-09-14T13:22:14.551Z,96030.98
2018-09-14T13:24:43.638Z,96030.52
2018-09-14T13:27:12.823Z,96024.74
2018-09-14T13:29:42.011Z,96021.87
2018-09-14T13:32:11.422Z,96018.30
2018-09-14T13:34:40.610Z,96013.89
2018-09-14T13:37:09.715Z,96017.22
2018-09-14T13:39:38.791Z,96018.86
2018-09-14T13:42:07.937Z,96014.06
2018-09-14T13:44:37.083Z,96018.30
2018-09-14T13:47:06.205Z,96009.70
2018-09-14T13:49:35.285Z,96005.02
2018-09-14T13:52:04.445Z,96016.56
2018-09-14T13:54:33.673Z,96014.37
2018-09-14T13:57:02.897Z,96015.88
2018-09-14T13:59:32.085Z,96015.30
2018-09-14T14:02:01.208Z,96012.23
2018-09-14T14:04:30.293Z,96014.64
2018-09-14T14:06:59.428Z,96016.06
2018-09-14T14:09:28.517Z,96009.95
2018-09-14T14:11:57.644Z,96012.73
2018-09-14T14:14:27.140Z,96007.22
2018-09-14T14:16:56.352Z,96002.33
2018-09-14T14:19:25.364Z,95999.43
2018-09-14T14:21:54.531Z,96003.07
2018-09-14T14:24:23.658Z,95999.85
2018-09-14T14:26:52.740Z,95998.14
2018-09-14T14:29:21.874Z,96003.53
2018-09-14T14:31:51.012Z,96004.87
2018-09-14T14:34:20.202Z,96003.16
2018-09-14T14:36:49.445Z,95997.33
2018-09-14T14:39:18.690Z,95990.16
2018-09-14T14:41:47.926Z,95997.33
2018-09-14T14:44:17.048Z,95995.61
2018-09-14T14:46:46.299Z,95993.42
2018-09-14T14:49:15.385Z,95981.92
2018-09-14T14:51:44.591Z,95989.89
2018-09-14T14:54:13.665Z,95985.63
2018-09-14T14:56:42.782Z,95992.30
2018-09-14T14:59:11.902Z,95980.84
2018-09-14T15:01:40.999Z,95988.16
2018-09-14T15:04:10.125Z,95989.98
2018-09-14T15:06:39.531Z,95982.59
2018-09-14T15:09:10.069Z,95983.45
2018-09-14T15:11:39.368Z,95983.19
2018-09-14T15:14:08.497Z,95979.66
2018-09-14T15:16:38.153Z,95976.89
2018-09-14T15:19:07.424Z,95971.09
2018-09-14T15:21:36.520Z,95966.84
2018-09-14T15:24:05.634Z,95976.70
2018-09-14T15:26:34.827Z,95974.59
2018-09-14T15:29:04.018Z,95977.47
2018-09-14T15:31:33.495Z,95978.83
2018-09-14T15:34:02.597Z,95985.31
2018-09-14T15:36:31.705Z,95976.33
2018-09-14T15:39:00.805Z,95978.88
2018-09-14T15:41:30.200Z,95976.36
2018-09-14T15:43:59.325Z,95973.62
2018-09-14T15:46:28.524Z,95970.84
2018-09-14T15:48:57.688Z,95963.83
2018-09-14T15:51:26.874Z,95967.05
2018-09-14T15:53:55.940Z,95969.73
2018-09-14T15:56:25.090Z,95970.97
2018-09-14T15:58:54.180Z,95967.73
2018-09-14T16:01:23.312Z,95964.63
2018-09-14T16:03:52.464Z,95959.33
2018-09-14T16:06:21.866Z,95961.17
2018-09-14T16:08:51.134Z,95962.19
2018-09-14T16:11:20.392Z,95957.11
2018-09-14T16:13:49.564Z,95960.41
2018-09-14T16:16:18.744Z,95962.14
2018-09-14T16:18:47.879Z,95963.11
2018-09-14T16:21:17.040Z,95968.20
2018-09-14T16:23:46.340Z,95967.28
2018-09-14T16:26:15.526Z,95970.69
2018-09-14T16:28:44.660Z,95967.36
2018-09-14T16:31:13.763Z,95966.80
2018-09-14T16:33:43.032Z,95963.59
2018-09-14T16:36:12.115Z,95963.13
2018-09-14T16:38:41.319Z,95968.69
2018-09-14T16:41:10.385Z,95961.09
2018-09-14T16:43:39.541Z,95968.05
2018-09-14T16:46:08.717Z,95972.07
2018-09-14T16:48:37.940Z,95969.50
2018-09-14T16:51:07.201Z,95975.59
2018-09-14T16:53:36.289Z,95976.27
2018-09-14T16:56:05.416Z,95974.80
2018-09-14T16:58:34.625Z,95984.75
2018-09-14T17:01:03.821Z,95986.25
2018-09-14T17:03:32.972Z,95988.55
2018-09-14T17:06:02.068Z,95989.59
2018-09-14T17:08:31.240Z,95986.39
2018-09-14T17:11:01.197Z,95986.94
2018-09-14T17:13:30.425Z,95987.57
2018-09-14T17:15:59.565Z,95989.34
2018-09-14T17:18:28.650Z,95986.92
2018-09-14T17:20:57.824Z,95988.17
2018-09-14T17:23:26.989Z,95992.65
2018-09-14T17:25:56.112Z,95996.77
2018-09-14T17:28:25.266Z,95995.34
2018-09-14T17:30:54.396Z,95999.06
2018-09-14T17:33:23.565Z,96001.61
2018-09-14T17:35:52.723Z,96005.84
2018-09-14T17:38:21.845Z,96003.14
2018-09-14T17:40:50.940Z,96004.83
2018-09-14T17:43:20.210Z,96007.94
2018-09-14T17:45:49.808Z,96005.59
2018-09-14T17:48:18.966Z,96001.70
2018-09-14T17:50:48.152Z,96006.57
2018-09-14T17:53:17.349Z,96006.94
2018-09-14T17:55:46.458Z,96003.93
2018-09-14T17:58:16.233Z,96007.83
2018-09-14T18:00:45.396Z,96001.88
2018-09-14T18:03:14.532Z,95994.19
2018-09-14T18:05:43.779Z,95991.00
2018-09-14T18:08:12.942Z,95998.63
2018-09-14T18:10:42.174Z,96001.92
2018-09-14T18:13:11.440Z,96008.73
2018-09-14T18:15:40.560Z,96008.55
2018-09-14T18:18:09.712Z,96003.15
2018-09-14T18:20:38.867Z,96009.14
2018-09-14T18:23:08.038Z,96002.08
2018-09-14T18:25:37.182Z,96005.22
2018-09-14T18:28:06.530Z,96008.48
2018-09-14T18:30:35.632Z,96012.13
2018-09-14T18:33:04.761Z,96017.84
2018-09-14T18:35:33.851Z,96009.23
2018-09-14T18:38:03.288Z,96018.41
2018-09-14T18:40:32.436Z,96025.62
2018-09-14T18:43:01.613Z,96030.44
2018-09-14T18:45:30.717Z,96028.25
2018-09-14T18:47:59.925Z,96024.61
2018-09-14T18:50:29.101Z,96032.23
2018-09-14T18:52:58.213Z,96043.85
2018-09-14T18:55:27.433Z,96042.55
2018-09-14T18:57:56.553Z,96042.29
2018-09-14T19:00:26.705Z,96043.08
2018-09-14T19:02:56.039Z,96048.20
2018-09-14T19:05:25.212Z,96048.72
2018-09-14T19:07:54.481Z,96055.67
2018-09-14T19:10:23.613Z,96052.41
2018-09-14T19:12:52.757Z,96048.84
2018-09-14T19:15:22.060Z,96056.30
2018-09-14T19:17:51.217Z,96047.45
2018-09-14T19:20:20.429Z,96053.41
2018-09-14T19:22:49.614Z,96051.13
2018-09-14T19:25:18.768Z,96059.30
2018-09-14T19:27:47.938Z,96057.28
2018-09-14T19:30:17.129Z,96053.56
2018-09-14T19:32:46.319Z,96058.45
2018-09-14T19:35:15.454Z,96053.19
2018-09-14T19:37:44.570Z,96052.36
2018-09-14T19:40:14.060Z,96051.21
2018-09-14T19:42:43.224Z,96055.11
2018-09-14T19:45:12.434Z,96057.22
2018-09-14T19:47:41.572Z,96056.80
2018-09-14T19:50:10.742Z,96065.67
2018-09-14T19:52:39.876Z,96066.06
2018-09-14T19:55:09.091Z,96061.63
2018-09-14T19:57:38.191Z,96063.41
2018-09-14T20:00:07.975Z,96060.14
2018-09-14T20:02:37.070Z,96051.39
2018-09-14T20:05:06.313Z,96048.20
2018-09-14T20:07:35.481Z,96052.42
2018-09-14T20:10:04.636Z,96059.64
2018-09-14T20:12:33.765Z,96065.47
2018-09-14T20:15:03.357Z,96075.44
2018-09-14T20:17:32.464Z,96067.91
2018-09-14T20:20:01.594Z,96068.29
2018-09-14T20:22:30.772Z,96071.41
2018-09-14T20:24:59.946Z,96070.84
2018-09-14T20:27:29.078Z,96077.14
2018-09-14T20:29:58.184Z,96081.53
2018-09-14T20:32:27.328Z,96074.77
2018-09-14T20:34:56.545Z,96068.52
2018-09-14T20:37:25.927Z,96076.91
2018-09-14T20:39:55.105Z,96080.41
2018-09-14T20:42:24.235Z,96073.24
2018-09-14T20:44:53.453Z,96072.52
2018-09-14T20:47:22.576Z,96064.50
2018-09-14T20:49:51.731Z,96065.24
2018-09-14T20:52:20.829Z,96067.52
2018-09-14T20:54:50.041Z,96065.14
2018-09-14T20:57:19.194Z,96070.21
2018-09-14T20:59:48.334Z,96064.75
2018-09-14T21:02:17.640Z,96062.50
2018-09-14T21:04:46.746Z,96061.07
2018-09-14T21:07:17.048Z,96060.41
2018-09-14T21:09:46.180Z,96060.08
2018-09-14T21:12:15.348Z,96062.91
2018-09-14T21:14:44.500Z,96057.83
2018-09-14T21:17:13.802Z,96063.03
2018-09-14T21:19:42.910Z,96060.53
2018-09-14T21:22:12.274Z,96061.83
2018-09-14T21:24:41.427Z,96056.73
2018-09-14T21:27:10.616Z,96056.73
2018-09-14T21:29:39.822Z,96053.34
2018-09-14T21:32:08.919Z,96050.97
2018-09-14T21:34:38.136Z,96056.40
2018-09-14T21:37:07.305Z,96061.19
2018-09-14T21:39:36.547Z,96060.30
2018-09-14T21:42:05.673Z,96060.38
2018-09-14T21:44:34.786Z,96065.22
2018-09-14T21:47:03.897Z,96062.13
2018-09-14T21:49:33.117Z,96073.67
2018-09-14T21:52:02.213Z,96075.80
2018-09-14T21:54:31.377Z,96070.36
2018-09-14T21:57:00.596Z,96077.89
2018-09-14T21:59:29.797Z,96075.14
2018-09-14T22:01:58.908Z,96066.20
2018-09-14T22:04:28.033Z,96069.22
2018-09-14T22:06:57.155Z,96064.08
2018-09-14T22:09:26.293Z,96070.52
2018-09-14T22:11:55.449Z,96067.14
2018-09-14T22:14:24.577Z,96067.06
2018-09-14T22:16:53.741Z,96069.03
2018-09-14T22:19:22.860Z,96066.84
2018-09-14T22:21:52.063Z,96068.14
2018-09-14T22:24:21.249Z,96072.08
2018-09-14T22:26:50.424Z,96073.27
2018-09-14T22:29:19.548Z,96069.03
2018-09-14T22:31:48.684Z,96067.69
2018-09-14T22:34:17.825Z,96065.50
2018-09-14T22:36:46.912Z,96070.52
2018-09-14T22:39:16.112Z,96069.14
2018-09-14T22:41:45.253Z,96070.63
2018-09-14T22:44:14.363Z,96069.33
2018-09-14T22:46:43.524Z,96077.47
2018-09-14T22:49:12.696Z,96082.98
2018-09-14T22:51:41.981Z,96083.02
2018-09-14T22:54:11.088Z,96083.84
2018-09-14T22:56:40.316Z,96083.23
2018-09-14T22:59:09.500Z,96083.84
2018-09-14T23:01:38.718Z,96075.94
2018-09-14T23:04:07.969Z,96080.41
2018-09-14T23:06:37.120Z,96078.02
2018-09-14T23:09:07.658Z,96082.97
2018-09-14T23:11:36.897Z,96079.02
2018-09-14T23:14:06.020Z,96076.64
2018-09-14T23:16:35.145Z,96079.51
2018-09-14T23:19:04.264Z,96089.30
2018-09-14T23:21:33.430Z,96090.42
2018-09-14T23:24:02.571Z,96092.62
2018-09-14T23:26:31.856Z,96090.42
2018-09-14T23:29:00.967Z,96096.94
2018-09-14T23:31:30.183Z,96094.62
2018-09-14T23:33:59.324Z,96089.67
2018-09-14T23:36:28.420Z,96091.54
2018-09-14T23:38:57.584Z,96085.59
2018-09-14T23:41:26.748Z,96094.05
2018-09-14T23:43:55.876Z,96093.56
2018-09-14T23:46:24.990Z,96093.89
2018-09-14T23:48:54.138Z,96096.53
2018-09-14T23:51:23.216Z,96096.34
2018-09-14T23:53:52.391Z,96092.44
2018-09-14T23:56:21.502Z,96096.13
2018-09-14T23:58:50.613Z,96086.23
